KPVU

Provo Municipal Airport

Provo, Utah, USA
KPVU 251726Z 2518/2618 VRB05KT P6SM FEW200 FM251900 31007KT P6SM FEW200 FM260400 VRB05KT P6SM SKC
Issued Valid From Valid To
Apr-25 @ 17:26 UTC
(53 minutes ago)
Apr-25 @ 18:00 UTC
(19 minutes ago)
Apr-26 @ 18:00 UTC
(in 24 hours)
Apr-25 @ 18:00 to Apr-25 @ 19:00
KPVU 251726Z 2518/2618 VRB05KT P6SM FEW200
Wind Visibility Clouds
Variable at 5 knots Greater than 6 miles
  • Few at 20,000' AGL
From Apr-25 @ 19:00 to Apr-26 @ 04:00
FM251900 31007KT P6SM FEW200
Wind Visibility Clouds
310° at 7 knots Greater than 6 miles
  • Few at 20,000' AGL
From Apr-26 @ 04:00 to Apr-26 @ 18:00
FM260400 VRB05KT P6SM SKC
Wind Visibility Clouds
Variable at 5 knots Greater than 6 miles
  • Clear skies
KPVU 251726Z 2518/2618 VRB05KT P6SM FEW200 FM251900 31007KT P6SM FEW200 FM260400 VRB05KT P6SM SKC
Issued Apr-25 @ 17:26 UTC
(53 minutes ago)
Valid From Apr-25 @ 18:00 UTC
(19 minutes ago)
Valid To Apr-26 @ 18:00 UTC
(in 24 hours)
Apr-25 @ 18:00 - Apr-25 @ 19:00
Wind Visibility
Variable at 5 knots Greater than 6 miles
Clouds
  • Few at 20,000' AGL
From Apr-25 @ 19:00 - Apr-26 @ 04:00
Wind Visibility
310° at 7 knots Greater than 6 miles
Clouds
  • Few at 20,000' AGL
From Apr-26 @ 04:00 - Apr-26 @ 18:00
Wind Visibility
Variable at 5 knots Greater than 6 miles
Clouds
  • Clear skies